Nicholson, Jonathan
United StatesManBorn 19722013 – 2025Runner id 449477
Events
23
2013 – 2025
Best pace
8.921
km/h · 2016
Best finish
24th
of 151 · 2016
Distance raced
1,839
km · splits not double-counted
Pace over time
km/h · higher is faster
Pace over time: 23 races from 2013 to 2025, ranging from 2.84 to 9.42 kilometres per hour, where higher is faster. A second, age-graded series is drawn above it; the gap between the two is the age credit.
- Actual pace
- Age-graded pace
Results
| Date | Event | Distance | Result | Pace km/h | Placing |
|---|---|---|---|---|---|
| 2013-09-07 | 100km | 12:58:27 h | 7.708 | 9/25 | |
| 2014-04-27 | 50km | 7:35:23 h | 6.588 | 72/123 | |
| 2014-07-19 | 24h | 108.920 km | 4.538 | 57/140 | |
| 2015-07-18 | Lone Ranger 24 hr Urban UltraUnited States | 24h | 68.075 km | 2.836 | 106/128 |
| 2015-09-06 | Labor Pain 12 Hour Endurance Trail RunUnited States | 12h | 49.889 km | 4.157 | 130/170 |
| 2015-09-12 | 100km | 12:10:51 h | 8.210 | 8/33 | |
| 2016-04-23 | 50km | 6:59:17 h | 7.155 | 125/258 | |
| 2016-09-04 | 12h | 64.373 km | 5.364 | 93/230 | |
| 2016-09-17 | 50km | 5:36:18 h | 8.921 | 24/151 | |
| 2016-10-09 | 50km | 7:56:11 h | 6.300 | 42/69 | |
| 2017-04-22 | 50km | 7:25:39 h | 6.732 | 161/242 | |
| 2017-05-20 | 24h | 80.467 km | 3.353 | 42/61 | |
| 2017-08-12 | Eastern States 100 MileUnited States | 100mi | 33:38:20 h | 4.784 | 82/121 |
| 2017-09-16 | 50km | 6:23:10 h | 7.829 | 52/156 | |
| 2018-04-21 | 50km | 7:33:54 h | 6.609 | 179/268 | |
| 2019-04-20 | 50km | 8:15:21 h | 6.056 | 208/267 | |
| 2019-06-01 | 50km | 8:50:12 h | 5.658 | 70/118 | |
| 2019-06-29 | 12h | 50.694 km | 4.225 | 28/34 | |
| 2019-09-13 | 202mi | 3d 15:48:39 h | 3.702 | 78/149 | |
| 2022-09-04 | 12h | 49.889 km | 4.157 | 122/159 | |
| 2023-09-24 | Ironmasters Challenge 50k UltraUnited States | 50km | 7:14:46 h | 6.900 | 14/46 |
| 2024-04-27 | 50mi | 14:39:23 h | 5.490 | 50/89 | |
| 2025-03-15 | 100km | 18:19:00 h | 5.460 | 47/106 |